sensor_id;sensor_type;location;lat;lon;timestamp;P1;durP1;ratioP1;P2;durP2;ratioP2
25015;SDS011;13029;46.286;7.488;2023-05-19T00:02:06;14.82;;;7.43;;
25015;SDS011;13029;46.286;7.488;2023-05-19T00:04:33;10.90;;;7.00;;
25015;SDS011;13029;46.286;7.488;2023-05-19T00:06:59;10.07;;;7.07;;
25015;SDS011;13029;46.286;7.488;2023-05-19T00:09:25;10.00;;;6.88;;
25015;SDS011;13029;46.286;7.488;2023-05-19T00:11:50;11.18;;;6.72;;
25015;SDS011;13029;46.286;7.488;2023-05-19T00:14:16;9.38;;;6.82;;
25015;SDS011;13029;46.286;7.488;2023-05-19T00:16:41;9.18;;;7.47;;
25015;SDS011;13029;46.286;7.488;2023-05-19T00:19:07;9.88;;;7.60;;
25015;SDS011;13029;46.286;7.488;2023-05-19T00:21:34;10.10;;;6.95;;
25015;SDS011;13029;46.286;7.488;2023-05-19T00:24:01;7.88;;;6.93;;
25015;SDS011;13029;46.286;7.488;2023-05-19T00:26:26;9.20;;;6.82;;
25015;SDS011;13029;46.286;7.488;2023-05-19T00:28:52;11.30;;;7.85;;
25015;SDS011;13029;46.286;7.488;2023-05-19T00:31:17;10.05;;;7.15;;
25015;SDS011;13029;46.286;7.488;2023-05-19T00:33:43;8.55;;;6.40;;
25015;SDS011;13029;46.286;7.488;2023-05-19T00:36:08;11.13;;;6.95;;
25015;SDS011;13029;46.286;7.488;2023-05-19T00:38:34;9.50;;;7.03;;
25015;SDS011;13029;46.286;7.488;2023-05-19T00:41:01;11.73;;;8.07;;
25015;SDS011;13029;46.286;7.488;2023-05-19T00:43:27;9.48;;;6.80;;
25015;SDS011;13029;46.286;7.488;2023-05-19T00:45:54;12.02;;;6.47;;
25015;SDS011;13029;46.286;7.488;2023-05-19T00:48:19;10.00;;;6.65;;
25015;SDS011;13029;46.286;7.488;2023-05-19T00:50:45;10.60;;;6.78;;
25015;SDS011;13029;46.286;7.488;2023-05-19T00:53:12;9.48;;;6.03;;
25015;SDS011;13029;46.286;7.488;2023-05-19T00:55:37;20.10;;;6.72;;
25015;SDS011;13029;46.286;7.488;2023-05-19T00:58:04;12.20;;;6.57;;
25015;SDS011;13029;46.286;7.488;2023-05-19T01:00:30;8.93;;;6.63;;
25015;SDS011;13029;46.286;7.488;2023-05-19T01:02:55;10.88;;;6.57;;
25015;SDS011;13029;46.286;7.488;2023-05-19T01:05:21;9.88;;;6.10;;
25015;SDS011;13029;46.286;7.488;2023-05-19T01:07:46;14.80;;;7.35;;
25015;SDS011;13029;46.286;7.488;2023-05-19T01:10:15;11.57;;;7.05;;
25015;SDS011;13029;46.286;7.488;2023-05-19T01:12:41;9.77;;;6.70;;
25015;SDS011;13029;46.286;7.488;2023-05-19T01:15:07;9.60;;;6.22;;
25015;SDS011;13029;46.286;7.488;2023-05-19T01:20:19;9.32;;;6.40;;
25015;SDS011;13029;46.286;7.488;2023-05-19T01:22:52;8.82;;;5.68;;
25015;SDS011;13029;46.286;7.488;2023-05-19T01:28:30;8.80;;;6.53;;
25015;SDS011;13029;46.286;7.488;2023-05-19T01:31:16;7.88;;;6.30;;
25015;SDS011;13029;46.286;7.488;2023-05-19T01:33:43;9.43;;;6.20;;
25015;SDS011;13029;46.286;7.488;2023-05-19T01:36:09;8.10;;;6.53;;
25015;SDS011;13029;46.286;7.488;2023-05-19T01:38:36;7.97;;;6.15;;
25015;SDS011;13029;46.286;7.488;2023-05-19T01:41:02;11.63;;;5.95;;
25015;SDS011;13029;46.286;7.488;2023-05-19T01:43:30;11.18;;;6.60;;
25015;SDS011;13029;46.286;7.488;2023-05-19T01:45:55;9.00;;;6.28;;
25015;SDS011;13029;46.286;7.488;2023-05-19T01:48:22;11.35;;;6.22;;
25015;SDS011;13029;46.286;7.488;2023-05-19T01:50:49;9.77;;;6.68;;
25015;SDS011;13029;46.286;7.488;2023-05-19T01:53:14;10.77;;;6.18;;
25015;SDS011;13029;46.286;7.488;2023-05-19T01:55:47;11.70;;;6.50;;
25015;SDS011;13029;46.286;7.488;2023-05-19T01:58:21;9.43;;;6.45;;
25015;SDS011;13029;46.286;7.488;2023-05-19T02:01:01;8.45;;;6.32;;
25015;SDS011;13029;46.286;7.488;2023-05-19T02:09:12;8.40;;;6.55;;
25015;SDS011;13029;46.286;7.488;2023-05-19T02:12:00;10.02;;;6.50;;
25015;SDS011;13029;46.286;7.488;2023-05-19T02:14:29;7.47;;;5.93;;
25015;SDS011;13029;46.286;7.488;2023-05-19T02:16:56;9.18;;;6.18;;
25015;SDS011;13029;46.286;7.488;2023-05-19T02:19:29;12.38;;;7.00;;
25015;SDS011;13029;46.286;7.488;2023-05-19T02:21:56;9.18;;;6.40;;
25015;SDS011;13029;46.286;7.488;2023-05-19T02:24:21;10.40;;;5.90;;
25015;SDS011;13029;46.286;7.488;2023-05-19T02:26:47;7.85;;;5.65;;
25015;SDS011;13029;46.286;7.488;2023-05-19T02:29:13;8.52;;;5.63;;
25015;SDS011;13029;46.286;7.488;2023-05-19T02:31:39;7.82;;;5.50;;
25015;SDS011;13029;46.286;7.488;2023-05-19T02:34:04;7.43;;;5.72;;
25015;SDS011;13029;46.286;7.488;2023-05-19T02:36:31;8.57;;;6.10;;
25015;SDS011;13029;46.286;7.488;2023-05-19T02:38:58;8.50;;;5.38;;
25015;SDS011;13029;46.286;7.488;2023-05-19T02:41:25;11.05;;;6.05;;
25015;SDS011;13029;46.286;7.488;2023-05-19T02:43:51;8.00;;;5.90;;
25015;SDS011;13029;46.286;7.488;2023-05-19T02:46:16;8.30;;;5.35;;
25015;SDS011;13029;46.286;7.488;2023-05-19T02:48:41;8.27;;;5.55;;
25015;SDS011;13029;46.286;7.488;2023-05-19T02:51:06;7.53;;;5.05;;
25015;SDS011;13029;46.286;7.488;2023-05-19T02:53:32;7.70;;;4.90;;
25015;SDS011;13029;46.286;7.488;2023-05-19T02:55:57;5.30;;;4.35;;
25015;SDS011;13029;46.286;7.488;2023-05-19T02:58:22;7.40;;;5.30;;
25015;SDS011;13029;46.286;7.488;2023-05-19T03:00:48;8.00;;;4.85;;
25015;SDS011;13029;46.286;7.488;2023-05-19T03:03:13;8.65;;;5.15;;
25015;SDS011;13029;46.286;7.488;2023-05-19T03:05:38;8.50;;;5.45;;
25015;SDS011;13029;46.286;7.488;2023-05-19T03:08:04;7.95;;;5.45;;
25015;SDS011;13029;46.286;7.488;2023-05-19T03:10:30;7.70;;;5.63;;
25015;SDS011;13029;46.286;7.488;2023-05-19T03:12:55;10.82;;;5.60;;
25015;SDS011;13029;46.286;7.488;2023-05-19T03:15:20;7.40;;;5.45;;
25015;SDS011;13029;46.286;7.488;2023-05-19T03:17:47;8.63;;;5.65;;
25015;SDS011;13029;46.286;7.488;2023-05-19T03:20:12;8.15;;;5.22;;
25015;SDS011;13029;46.286;7.488;2023-05-19T03:22:39;8.40;;;5.45;;
25015;SDS011;13029;46.286;7.488;2023-05-19T03:25:05;8.15;;;5.15;;
25015;SDS011;13029;46.286;7.488;2023-05-19T03:27:30;5.85;;;5.05;;
25015;SDS011;13029;46.286;7.488;2023-05-19T03:29:56;7.90;;;5.13;;
25015;SDS011;13029;46.286;7.488;2023-05-19T03:32:21;8.90;;;5.50;;
25015;SDS011;13029;46.286;7.488;2023-05-19T03:34:46;7.95;;;5.10;;
25015;SDS011;13029;46.286;7.488;2023-05-19T03:37:12;9.65;;;5.50;;
25015;SDS011;13029;46.286;7.488;2023-05-19T03:39:37;7.10;;;5.15;;
25015;SDS011;13029;46.286;7.488;2023-05-19T03:42:02;7.63;;;5.03;;
25015;SDS011;13029;46.286;7.488;2023-05-19T03:44:28;10.27;;;5.82;;
25015;SDS011;13029;46.286;7.488;2023-05-19T03:46:53;10.05;;;6.10;;
25015;SDS011;13029;46.286;7.488;2023-05-19T03:49:18;8.10;;;6.30;;
25015;SDS011;13029;46.286;7.488;2023-05-19T03:51:44;8.95;;;6.57;;
25015;SDS011;13029;46.286;7.488;2023-05-19T03:54:10;8.38;;;6.45;;
25015;SDS011;13029;46.286;7.488;2023-05-19T03:56:37;10.52;;;6.63;;
25015;SDS011;13029;46.286;7.488;2023-05-19T03:59:03;10.98;;;7.32;;
25015;SDS011;13029;46.286;7.488;2023-05-19T04:01:31;9.10;;;6.43;;
25015;SDS011;13029;46.286;7.488;2023-05-19T04:03:56;11.82;;;6.28;;
25015;SDS011;13029;46.286;7.488;2023-05-19T04:06:21;10.45;;;6.22;;
25015;SDS011;13029;46.286;7.488;2023-05-19T04:08:47;10.27;;;6.72;;
25015;SDS011;13029;46.286;7.488;2023-05-19T04:11:12;9.05;;;6.95;;
25015;SDS011;13029;46.286;7.488;2023-05-19T04:13:38;10.27;;;6.22;;
25015;SDS011;13029;46.286;7.488;2023-05-19T04:16:03;7.63;;;5.90;;
25015;SDS011;13029;46.286;7.488;2023-05-19T04:18:29;10.63;;;6.10;;
25015;SDS011;13029;46.286;7.488;2023-05-19T04:20:54;9.05;;;6.30;;
25015;SDS011;13029;46.286;7.488;2023-05-19T04:23:20;7.68;;;6.03;;
25015;SDS011;13029;46.286;7.488;2023-05-19T04:25:45;7.13;;;5.82;;
25015;SDS011;13029;46.286;7.488;2023-05-19T04:28:12;7.20;;;6.40;;
25015;SDS011;13029;46.286;7.488;2023-05-19T04:30:38;11.18;;;6.05;;
25015;SDS011;13029;46.286;7.488;2023-05-19T04:33:04;7.25;;;5.93;;
25015;SDS011;13029;46.286;7.488;2023-05-19T04:35:29;8.82;;;6.57;;
25015;SDS011;13029;46.286;7.488;2023-05-19T04:37:55;7.82;;;6.50;;
25015;SDS011;13029;46.286;7.488;2023-05-19T04:40:20;8.07;;;6.13;;
25015;SDS011;13029;46.286;7.488;2023-05-19T04:42:47;8.80;;;6.72;;
25015;SDS011;13029;46.286;7.488;2023-05-19T04:45:13;9.40;;;6.47;;
25015;SDS011;13029;46.286;7.488;2023-05-19T04:47:39;8.40;;;5.95;;
25015;SDS011;13029;46.286;7.488;2023-05-19T04:50:06;8.85;;;6.20;;
25015;SDS011;13029;46.286;7.488;2023-05-19T04:52:31;7.28;;;5.75;;
25015;SDS011;13029;46.286;7.488;2023-05-19T04:54:57;10.63;;;6.38;;
25015;SDS011;13029;46.286;7.488;2023-05-19T04:57:22;10.85;;;6.30;;
25015;SDS011;13029;46.286;7.488;2023-05-19T04:59:47;10.30;;;6.60;;
25015;SDS011;13029;46.286;7.488;2023-05-19T05:02:13;12.10;;;6.65;;
25015;SDS011;13029;46.286;7.488;2023-05-19T05:04:38;8.43;;;5.55;;
25015;SDS011;13029;46.286;7.488;2023-05-19T05:07:07;10.13;;;5.75;;
25015;SDS011;13029;46.286;7.488;2023-05-19T05:09:32;8.77;;;6.95;;
25015;SDS011;13029;46.286;7.488;2023-05-19T05:11:58;8.18;;;6.38;;
25015;SDS011;13029;46.286;7.488;2023-05-19T05:14:24;9.35;;;6.30;;
25015;SDS011;13029;46.286;7.488;2023-05-19T05:16:50;8.98;;;6.63;;
25015;SDS011;13029;46.286;7.488;2023-05-19T05:19:16;8.95;;;6.70;;
25015;SDS011;13029;46.286;7.488;2023-05-19T05:21:42;12.70;;;7.32;;
25015;SDS011;13029;46.286;7.488;2023-05-19T05:24:07;10.65;;;7.30;;
25015;SDS011;13029;46.286;7.488;2023-05-19T05:26:33;10.73;;;7.20;;
25015;SDS011;13029;46.286;7.488;2023-05-19T05:28:59;10.82;;;7.10;;
25015;SDS011;13029;46.286;7.488;2023-05-19T05:31:25;17.63;;;7.80;;
25015;SDS011;13029;46.286;7.488;2023-05-19T05:33:50;13.65;;;8.10;;
25015;SDS011;13029;46.286;7.488;2023-05-19T05:36:15;11.00;;;8.20;;
25015;SDS011;13029;46.286;7.488;2023-05-19T05:38:41;13.25;;;8.05;;
25015;SDS011;13029;46.286;7.488;2023-05-19T05:41:06;10.70;;;7.72;;
25015;SDS011;13029;46.286;7.488;2023-05-19T05:43:31;12.55;;;7.75;;
25015;SDS011;13029;46.286;7.488;2023-05-19T05:45:57;15.95;;;8.23;;
25015;SDS011;13029;46.286;7.488;2023-05-19T05:48:22;11.88;;;8.10;;
25015;SDS011;13029;46.286;7.488;2023-05-19T05:50:48;9.85;;;6.78;;
25015;SDS011;13029;46.286;7.488;2023-05-19T05:53:17;10.85;;;7.65;;
25015;SDS011;13029;46.286;7.488;2023-05-19T05:55:43;10.70;;;7.72;;
25015;SDS011;13029;46.286;7.488;2023-05-19T05:58:10;10.25;;;7.07;;
25015;SDS011;13029;46.286;7.488;2023-05-19T06:00:35;12.13;;;6.90;;
25015;SDS011;13029;46.286;7.488;2023-05-19T06:03:01;10.50;;;6.78;;
25015;SDS011;13029;46.286;7.488;2023-05-19T06:05:28;12.70;;;7.32;;
25015;SDS011;13029;46.286;7.488;2023-05-19T06:07:53;9.50;;;6.47;;
25015;SDS011;13029;46.286;7.488;2023-05-19T06:10:18;7.45;;;6.72;;
25015;SDS011;13029;46.286;7.488;2023-05-19T06:12:44;9.75;;;6.70;;
25015;SDS011;13029;46.286;7.488;2023-05-19T06:15:09;12.60;;;8.05;;
25015;SDS011;13029;46.286;7.488;2023-05-19T06:17:34;9.85;;;7.22;;
25015;SDS011;13029;46.286;7.488;2023-05-19T06:20:00;10.20;;;7.57;;
25015;SDS011;13029;46.286;7.488;2023-05-19T06:22:26;11.55;;;7.47;;
25015;SDS011;13029;46.286;7.488;2023-05-19T06:24:52;12.05;;;9.65;;
25015;SDS011;13029;46.286;7.488;2023-05-19T06:27:17;11.35;;;9.05;;
25015;SDS011;13029;46.286;7.488;2023-05-19T06:29:43;12.73;;;9.60;;
25015;SDS011;13029;46.286;7.488;2023-05-19T06:32:08;11.57;;;9.20;;
25015;SDS011;13029;46.286;7.488;2023-05-19T06:34:33;16.33;;;9.02;;
25015;SDS011;13029;46.286;7.488;2023-05-19T06:36:59;12.48;;;8.55;;
25015;SDS011;13029;46.286;7.488;2023-05-19T06:39:26;8.82;;;7.93;;
25015;SDS011;13029;46.286;7.488;2023-05-19T06:41:51;9.90;;;7.45;;
25015;SDS011;13029;46.286;7.488;2023-05-19T06:44:17;32.53;;;10.32;;
25015;SDS011;13029;46.286;7.488;2023-05-19T06:46:42;31.73;;;10.27;;
25015;SDS011;13029;46.286;7.488;2023-05-19T06:49:08;13.05;;;10.07;;
25015;SDS011;13029;46.286;7.488;2023-05-19T06:51:34;11.45;;;8.80;;
25015;SDS011;13029;46.286;7.488;2023-05-19T06:53:59;13.57;;;9.40;;
25015;SDS011;13029;46.286;7.488;2023-05-19T06:56:25;14.05;;;10.23;;
25015;SDS011;13029;46.286;7.488;2023-05-19T06:58:50;17.25;;;11.18;;
25015;SDS011;13029;46.286;7.488;2023-05-19T07:01:15;14.77;;;10.52;;
25015;SDS011;13029;46.286;7.488;2023-05-19T07:03:41;16.67;;;11.60;;
25015;SDS011;13029;46.286;7.488;2023-05-19T07:06:06;11.85;;;10.43;;
25015;SDS011;13029;46.286;7.488;2023-05-19T07:08:31;12.68;;;9.88;;
25015;SDS011;13029;46.286;7.488;2023-05-19T07:10:58;15.13;;;9.57;;
25015;SDS011;13029;46.286;7.488;2023-05-19T07:13:23;13.63;;;11.05;;
25015;SDS011;13029;46.286;7.488;2023-05-19T07:15:48;15.20;;;12.05;;
25015;SDS011;13029;46.286;7.488;2023-05-19T07:18:16;18.63;;;12.27;;
25015;SDS011;13029;46.286;7.488;2023-05-19T07:20:41;17.15;;;12.13;;
25015;SDS011;13029;46.286;7.488;2023-05-19T07:23:06;16.13;;;11.70;;
25015;SDS011;13029;46.286;7.488;2023-05-19T07:25:32;17.02;;;12.77;;
25015;SDS011;13029;46.286;7.488;2023-05-19T07:27:57;16.70;;;10.95;;
25015;SDS011;13029;46.286;7.488;2023-05-19T07:30:23;15.75;;;12.15;;
25015;SDS011;13029;46.286;7.488;2023-05-19T07:32:48;14.38;;;10.30;;
25015;SDS011;13029;46.286;7.488;2023-05-19T07:35:13;13.88;;;10.52;;
25015;SDS011;13029;46.286;7.488;2023-05-19T07:37:39;11.77;;;9.60;;
25015;SDS011;13029;46.286;7.488;2023-05-19T07:40:04;12.60;;;9.88;;
25015;SDS011;13029;46.286;7.488;2023-05-19T07:42:33;12.75;;;10.70;;
25015;SDS011;13029;46.286;7.488;2023-05-19T07:44:58;10.80;;;9.68;;
25015;SDS011;13029;46.286;7.488;2023-05-19T07:47:24;15.52;;;10.57;;
25015;SDS011;13029;46.286;7.488;2023-05-19T07:49:49;13.63;;;10.13;;
25015;SDS011;13029;46.286;7.488;2023-05-19T07:52:15;12.25;;;10.18;;
25015;SDS011;13029;46.286;7.488;2023-05-19T07:54:42;14.43;;;9.45;;
25015;SDS011;13029;46.286;7.488;2023-05-19T07:57:07;14.55;;;9.90;;
25015;SDS011;13029;46.286;7.488;2023-05-19T07:59:33;10.63;;;8.10;;
25015;SDS011;13029;46.286;7.488;2023-05-19T08:01:58;14.50;;;9.30;;
25015;SDS011;13029;46.286;7.488;2023-05-19T08:04:23;11.05;;;8.35;;
25015;SDS011;13029;46.286;7.488;2023-05-19T08:06:49;13.73;;;9.07;;
25015;SDS011;13029;46.286;7.488;2023-05-19T08:09:16;9.43;;;7.97;;
25015;SDS011;13029;46.286;7.488;2023-05-19T08:11:41;13.98;;;8.73;;
25015;SDS011;13029;46.286;7.488;2023-05-19T08:14:06;14.05;;;8.52;;
25015;SDS011;13029;46.286;7.488;2023-05-19T08:16:32;12.50;;;8.60;;
25015;SDS011;13029;46.286;7.488;2023-05-19T08:18:57;11.73;;;8.32;;
25015;SDS011;13029;46.286;7.488;2023-05-19T08:21:26;12.05;;;8.35;;
25015;SDS011;13029;46.286;7.488;2023-05-19T08:23:51;8.63;;;6.80;;
25015;SDS011;13029;46.286;7.488;2023-05-19T08:26:16;9.60;;;7.13;;
25015;SDS011;13029;46.286;7.488;2023-05-19T08:28:42;9.73;;;6.88;;
25015;SDS011;13029;46.286;7.488;2023-05-19T08:31:08;7.80;;;6.00;;
25015;SDS011;13029;46.286;7.488;2023-05-19T08:33:33;8.98;;;6.35;;
25015;SDS011;13029;46.286;7.488;2023-05-19T08:35:58;9.13;;;6.30;;
25015;SDS011;13029;46.286;7.488;2023-05-19T08:38:24;9.25;;;6.00;;
25015;SDS011;13029;46.286;7.488;2023-05-19T08:40:50;11.10;;;6.70;;
25015;SDS011;13029;46.286;7.488;2023-05-19T08:43:15;11.63;;;6.05;;
25015;SDS011;13029;46.286;7.488;2023-05-19T08:45:41;10.30;;;6.00;;
25015;SDS011;13029;46.286;7.488;2023-05-19T08:48:08;6.38;;;5.75;;
25015;SDS011;13029;46.286;7.488;2023-05-19T08:50:34;10.07;;;5.55;;
25015;SDS011;13029;46.286;7.488;2023-05-19T08:53:07;8.43;;;5.57;;
25015;SDS011;13029;46.286;7.488;2023-05-19T08:55:45;9.20;;;6.10;;
25015;SDS011;13029;46.286;7.488;2023-05-19T08:58:18;6.50;;;5.10;;
25015;SDS011;13029;46.286;7.488;2023-05-19T09:00:45;8.38;;;5.13;;
25015;SDS011;13029;46.286;7.488;2023-05-19T09:03:11;8.65;;;5.95;;
25015;SDS011;13029;46.286;7.488;2023-05-19T09:05:39;7.28;;;5.85;;
25015;SDS011;13029;46.286;7.488;2023-05-19T09:08:05;12.40;;;6.40;;
25015;SDS011;13029;46.286;7.488;2023-05-19T09:10:30;7.40;;;5.97;;
25015;SDS011;13029;46.286;7.488;2023-05-19T09:12:55;7.25;;;5.75;;
25015;SDS011;13029;46.286;7.488;2023-05-19T09:15:21;7.97;;;6.07;;
25015;SDS011;13029;46.286;7.488;2023-05-19T09:17:54;10.10;;;6.10;;
25015;SDS011;13029;46.286;7.488;2023-05-19T09:20:29;8.27;;;6.20;;
25015;SDS011;13029;46.286;7.488;2023-05-19T09:22:55;6.35;;;5.38;;
25015;SDS011;13029;46.286;7.488;2023-05-19T09:25:21;7.95;;;5.80;;
25015;SDS011;13029;46.286;7.488;2023-05-19T09:27:47;6.72;;;5.65;;
25015;SDS011;13029;46.286;7.488;2023-05-19T09:30:14;7.43;;;5.20;;
25015;SDS011;13029;46.286;7.488;2023-05-19T09:32:43;6.45;;;4.93;;
25015;SDS011;13029;46.286;7.488;2023-05-19T09:35:10;6.80;;;5.18;;
25015;SDS011;13029;46.286;7.488;2023-05-19T09:37:38;6.60;;;5.22;;
25015;SDS011;13029;46.286;7.488;2023-05-19T09:40:04;8.85;;;5.43;;
25015;SDS011;13029;46.286;7.488;2023-05-19T09:42:31;7.95;;;4.70;;
25015;SDS011;13029;46.286;7.488;2023-05-19T09:45:01;9.67;;;4.80;;
25015;SDS011;13029;46.286;7.488;2023-05-19T09:47:31;5.95;;;4.45;;
25015;SDS011;13029;46.286;7.488;2023-05-19T09:49:57;6.28;;;4.53;;
25015;SDS011;13029;46.286;7.488;2023-05-19T09:52:22;6.35;;;4.70;;
25015;SDS011;13029;46.286;7.488;2023-05-19T09:54:48;7.75;;;4.22;;
25015;SDS011;13029;46.286;7.488;2023-05-19T09:57:15;6.47;;;4.50;;
25015;SDS011;13029;46.286;7.488;2023-05-19T09:59:41;8.60;;;4.05;;
25015;SDS011;13029;46.286;7.488;2023-05-19T10:02:08;6.15;;;4.40;;
25015;SDS011;13029;46.286;7.488;2023-05-19T10:04:39;6.43;;;4.60;;
25015;SDS011;13029;46.286;7.488;2023-05-19T10:07:05;5.78;;;4.18;;
25015;SDS011;13029;46.286;7.488;2023-05-19T10:09:31;5.80;;;4.70;;
25015;SDS011;13029;46.286;7.488;2023-05-19T10:11:57;4.50;;;4.10;;
25015;SDS011;13029;46.286;7.488;2023-05-19T10:14:23;5.88;;;4.15;;
25015;SDS011;13029;46.286;7.488;2023-05-19T10:16:50;4.90;;;3.65;;
25015;SDS011;13029;46.286;7.488;2023-05-19T10:19:16;6.78;;;3.42;;
25015;SDS011;13029;46.286;7.488;2023-05-19T10:21:44;5.60;;;3.70;;
25015;SDS011;13029;46.286;7.488;2023-05-19T10:24:10;4.25;;;2.80;;
25015;SDS011;13029;46.286;7.488;2023-05-19T10:26:35;4.53;;;3.10;;
25015;SDS011;13029;46.286;7.488;2023-05-19T10:29:01;4.75;;;3.00;;
25015;SDS011;13029;46.286;7.488;2023-05-19T10:31:27;6.22;;;2.33;;
25015;SDS011;13029;46.286;7.488;2023-05-19T10:34:04;4.47;;;2.50;;
25015;SDS011;13029;46.286;7.488;2023-05-19T10:36:49;4.32;;;2.67;;
25015;SDS011;13029;46.286;7.488;2023-05-19T10:39:28;2.67;;;2.38;;
25015;SDS011;13029;46.286;7.488;2023-05-19T10:42:15;2.40;;;1.75;;
25015;SDS011;13029;46.286;7.488;2023-05-19T10:47:42;2.35;;;2.03;;
25015;SDS011;13029;46.286;7.488;2023-05-19T10:50:08;2.53;;;2.13;;
25015;SDS011;13029;46.286;7.488;2023-05-19T10:52:37;5.50;;;2.60;;
25015;SDS011;13029;46.286;7.488;2023-05-19T10:55:04;3.85;;;3.03;;
25015;SDS011;13029;46.286;7.488;2023-05-19T10:57:32;6.40;;;3.22;;
25015;SDS011;13029;46.286;7.488;2023-05-19T10:59:58;5.82;;;3.72;;
25015;SDS011;13029;46.286;7.488;2023-05-19T11:02:35;7.25;;;4.22;;
25015;SDS011;13029;46.286;7.488;2023-05-19T11:05:10;5.40;;;3.25;;
25015;SDS011;13029;46.286;7.488;2023-05-19T11:07:41;4.03;;;3.60;;
25015;SDS011;13029;46.286;7.488;2023-05-19T11:10:22;5.20;;;4.20;;
25015;SDS011;13029;46.286;7.488;2023-05-19T11:12:48;6.60;;;3.53;;
25015;SDS011;13029;46.286;7.488;2023-05-19T11:15:14;5.90;;;4.07;;
25015;SDS011;13029;46.286;7.488;2023-05-19T11:17:40;6.38;;;3.83;;
25015;SDS011;13029;46.286;7.488;2023-05-19T11:20:07;6.38;;;4.15;;
25015;SDS011;13029;46.286;7.488;2023-05-19T11:22:35;5.05;;;3.65;;
25015;SDS011;13029;46.286;7.488;2023-05-19T11:25:00;4.32;;;3.40;;
25015;SDS011;13029;46.286;7.488;2023-05-19T11:27:27;4.50;;;3.22;;
25015;SDS011;13029;46.286;7.488;2023-05-19T11:29:53;5.22;;;3.03;;
25015;SDS011;13029;46.286;7.488;2023-05-19T11:32:20;5.65;;;2.88;;
25015;SDS011;13029;46.286;7.488;2023-05-19T11:34:46;5.18;;;2.63;;
25015;SDS011;13029;46.286;7.488;2023-05-19T11:37:13;5.03;;;2.83;;
25015;SDS011;13029;46.286;7.488;2023-05-19T11:39:38;3.13;;;2.83;;
25015;SDS011;13029;46.286;7.488;2023-05-19T11:42:04;5.18;;;2.72;;
25015;SDS011;13029;46.286;7.488;2023-05-19T11:44:30;3.17;;;2.60;;
25015;SDS011;13029;46.286;7.488;2023-05-19T11:46:55;2.85;;;2.40;;
25015;SDS011;13029;46.286;7.488;2023-05-19T11:49:22;6.90;;;2.75;;
25015;SDS011;13029;46.286;7.488;2023-05-19T11:51:48;3.08;;;2.30;;
25015;SDS011;13029;46.286;7.488;2023-05-19T11:54:13;5.85;;;2.70;;
25015;SDS011;13029;46.286;7.488;2023-05-19T11:56:39;2.85;;;2.15;;
25015;SDS011;13029;46.286;7.488;2023-05-19T11:59:05;3.63;;;2.40;;
25015;SDS011;13029;46.286;7.488;2023-05-19T12:01:31;3.10;;;2.20;;
25015;SDS011;13029;46.286;7.488;2023-05-19T12:03:57;6.63;;;2.80;;
25015;SDS011;13029;46.286;7.488;2023-05-19T12:06:24;2.78;;;2.20;;
25015;SDS011;13029;46.286;7.488;2023-05-19T12:08:50;4.65;;;3.00;;
25015;SDS011;13029;46.286;7.488;2023-05-19T12:11:17;5.28;;;2.97;;
25015;SDS011;13029;46.286;7.488;2023-05-19T12:13:42;5.25;;;2.95;;
25015;SDS011;13029;46.286;7.488;2023-05-19T12:16:08;5.60;;;3.10;;
25015;SDS011;13029;46.286;7.488;2023-05-19T12:18:37;6.68;;;3.50;;
25015;SDS011;13029;46.286;7.488;2023-05-19T12:21:03;4.90;;;3.55;;
25015;SDS011;13029;46.286;7.488;2023-05-19T12:23:28;6.38;;;3.30;;
25015;SDS011;13029;46.286;7.488;2023-05-19T12:25:57;5.53;;;3.22;;
25015;SDS011;13029;46.286;7.488;2023-05-19T12:28:23;6.18;;;3.00;;
25015;SDS011;13029;46.286;7.488;2023-05-19T12:30:49;4.90;;;3.80;;
25015;SDS011;13029;46.286;7.488;2023-05-19T12:33:16;4.75;;;3.60;;
25015;SDS011;13029;46.286;7.488;2023-05-19T12:35:43;6.05;;;4.13;;
25015;SDS011;13029;46.286;7.488;2023-05-19T12:38:10;5.05;;;3.20;;
25015;SDS011;13029;46.286;7.488;2023-05-19T12:40:35;3.58;;;3.28;;
25015;SDS011;13029;46.286;7.488;2023-05-19T12:43:01;3.50;;;2.95;;
25015;SDS011;13029;46.286;7.488;2023-05-19T12:45:27;8.02;;;4.00;;
25015;SDS011;13029;46.286;7.488;2023-05-19T12:47:52;4.15;;;3.03;;
25015;SDS011;13029;46.286;7.488;2023-05-19T12:50:18;5.28;;;3.55;;
25015;SDS011;13029;46.286;7.488;2023-05-19T12:52:47;9.00;;;3.22;;
25015;SDS011;13029;46.286;7.488;2023-05-19T12:55:15;4.18;;;3.45;;
25015;SDS011;13029;46.286;7.488;2023-05-19T12:57:47;4.25;;;3.13;;
25015;SDS011;13029;46.286;7.488;2023-05-19T13:00:14;3.38;;;2.85;;
25015;SDS011;13029;46.286;7.488;2023-05-19T13:03:12;3.67;;;3.05;;
25015;SDS011;13029;46.286;7.488;2023-05-19T13:05:47;3.55;;;2.75;;
25015;SDS011;13029;46.286;7.488;2023-05-19T13:08:15;3.90;;;3.03;;
25015;SDS011;13029;46.286;7.488;2023-05-19T13:10:42;6.75;;;2.60;;
25015;SDS011;13029;46.286;7.488;2023-05-19T13:13:08;3.20;;;2.83;;
25015;SDS011;13029;46.286;7.488;2023-05-19T13:15:36;3.72;;;2.88;;
25015;SDS011;13029;46.286;7.488;2023-05-19T13:18:03;3.10;;;2.63;;
25015;SDS011;13029;46.286;7.488;2023-05-19T13:20:31;6.32;;;2.60;;
25015;SDS011;13029;46.286;7.488;2023-05-19T13:23:00;7.78;;;3.25;;
25015;SDS011;13029;46.286;7.488;2023-05-19T13:25:25;3.50;;;2.60;;
25015;SDS011;13029;46.286;7.488;2023-05-19T13:27:51;3.38;;;2.55;;
25015;SDS011;13029;46.286;7.488;2023-05-19T13:30:18;4.05;;;2.90;;
25015;SDS011;13029;46.286;7.488;2023-05-19T13:32:44;3.75;;;2.70;;
25015;SDS011;13029;46.286;7.488;2023-05-19T13:35:10;3.95;;;2.90;;
25015;SDS011;13029;46.286;7.488;2023-05-19T13:37:37;13.32;;;3.00;;
25015;SDS011;13029;46.286;7.488;2023-05-19T13:40:03;8.73;;;3.20;;
25015;SDS011;13029;46.286;7.488;2023-05-19T13:42:30;4.93;;;3.28;;
25015;SDS011;13029;46.286;7.488;2023-05-19T13:45:02;4.63;;;3.08;;
25015;SDS011;13029;46.286;7.488;2023-05-19T13:47:28;4.32;;;2.97;;
25015;SDS011;13029;46.286;7.488;2023-05-19T13:49:53;5.72;;;3.05;;
25015;SDS011;13029;46.286;7.488;2023-05-19T13:52:19;4.13;;;3.10;;
25015;SDS011;13029;46.286;7.488;2023-05-19T13:54:45;5.70;;;3.85;;
25015;SDS011;13029;46.286;7.488;2023-05-19T13:57:11;4.28;;;3.20;;
25015;SDS011;13029;46.286;7.488;2023-05-19T13:59:36;4.60;;;3.28;;
25015;SDS011;13029;46.286;7.488;2023-05-19T14:02:01;3.63;;;3.20;;
25015;SDS011;13029;46.286;7.488;2023-05-19T14:04:27;6.78;;;3.78;;
25015;SDS011;13029;46.286;7.488;2023-05-19T14:06:53;6.00;;;3.53;;
25015;SDS011;13029;46.286;7.488;2023-05-19T14:09:18;4.80;;;3.40;;
25015;SDS011;13029;46.286;7.488;2023-05-19T14:11:44;5.90;;;3.75;;
25015;SDS011;13029;46.286;7.488;2023-05-19T14:14:10;4.38;;;3.72;;
25015;SDS011;13029;46.286;7.488;2023-05-19T14:16:35;6.05;;;4.05;;
25015;SDS011;13029;46.286;7.488;2023-05-19T14:19:01;6.60;;;3.67;;
25015;SDS011;13029;46.286;7.488;2023-05-19T14:21:26;5.45;;;3.47;;
25015;SDS011;13029;46.286;7.488;2023-05-19T14:23:51;5.70;;;3.67;;
25015;SDS011;13029;46.286;7.488;2023-05-19T14:26:16;5.95;;;4.65;;
25015;SDS011;13029;46.286;7.488;2023-05-19T14:28:43;5.53;;;3.88;;
25015;SDS011;13029;46.286;7.488;2023-05-19T14:31:10;8.00;;;4.35;;
25015;SDS011;13029;46.286;7.488;2023-05-19T14:33:35;4.78;;;3.65;;
25015;SDS011;13029;46.286;7.488;2023-05-19T14:36:01;5.57;;;4.47;;
25015;SDS011;13029;46.286;7.488;2023-05-19T14:38:26;5.85;;;3.63;;
25015;SDS011;13029;46.286;7.488;2023-05-19T14:40:51;10.20;;;4.28;;
25015;SDS011;13029;46.286;7.488;2023-05-19T14:43:17;7.30;;;4.82;;
25015;SDS011;13029;46.286;7.488;2023-05-19T14:45:42;6.18;;;4.18;;
25015;SDS011;13029;46.286;7.488;2023-05-19T14:48:08;4.03;;;3.63;;
25015;SDS011;13029;46.286;7.488;2023-05-19T14:50:35;7.15;;;4.13;;
25015;SDS011;13029;46.286;7.488;2023-05-19T14:53:01;4.95;;;3.78;;
25015;SDS011;13029;46.286;7.488;2023-05-19T14:55:26;6.90;;;4.30;;